CheckWX is a tool to help pilots better visualize weather data.  It is not intended as a substitute for an official pre-flight weather briefing.

02:34:30 UTC

EGLL METAR
London Heathrow Airport
London, United Kingdom
Current

15 mins ago

EGLL 230220Z AUTO 24004KT 8000 OVC027 09/07 Q1029 NOSIG
Observed
Mar-23 @ 02:20 UTC
Wind
  • 240° at 4 KTS
Visibility
7,998 meters
Flight Rules
MVFR
Cloud Levels
  • Overcast at 2,700' AGL
Temperature
C / 48°F
Dewpoint
C / 45°F
Humidity
87%
Altimeter
30.38" Hg
Pressure
1028.91 hPa
Previous

45 mins ago

EGLL 230150Z AUTO 24003KT 7000 OVC028 09/07 Q1029 NOSIG
Observed
Mar-23 @ 01:50 UTC
Wind
  • 240° at 3 KTS
Visibility
7,001 meters
Flight Rules
MVFR
Cloud Levels
  • Overcast at 2,800' AGL
Temperature
C / 48°F
Dewpoint
C / 45°F
Humidity
87%
Altimeter
30.38" Hg
Pressure
1028.91 hPa
Previous

1 hour ago

EGLL 230120Z AUTO 23004KT 7000 OVC030 09/07 Q1029 NOSIG
Observed
Mar-23 @ 01:20 UTC
Wind
  • 230° at 4 KTS
Visibility
7,001 meters
Flight Rules
MVFR
Cloud Levels
  • Overcast at 3,000' AGL
Temperature
C / 48°F
Dewpoint
C / 45°F
Humidity
87%
Altimeter
30.38" Hg
Pressure
1028.91 hPa